Detalii statie VESTAGRAR MARGHITA [00001D0E]

Toti senzorii

Date Temperatura solului [C]Precipitatii [mm]Voltaj baterie [mV]Leaf Wetness [Min]HC Air temperature [C]HC Relative humidity [%]Punctul de roua [C]
medieminmaxsumaultimatimpmedieminmaxmediemediemin
2019-06-15 17:00:00 0 7274 32.38 32.1 33.05 5.74 2.3 0
2019-06-15 18:00:00 0 7254 30.82 29.12 31.83 0 0 0
2019-06-15 19:00:00 0 6982 27.84 27.07 29.13 0 0 0
2019-06-15 20:00:00 0 6932 25.78 24.15 26.9 2.15 0
2019-06-15 21:00:00 0 6932 22.83 22.06 23.87 0 0 0
2019-06-15 22:00:00 0 6922 21.52 20.91 22.45 0 0 0
2019-06-15 23:00:00 0 6922 20.62 20.34 21.1 0 0 0
2019-06-16 00:00:00 0 6914 20.33 19.97 20.6 0 0 0
2019-06-16 01:00:00 0 6904 20.63 19.89 21.29 0 0 0
2019-06-16 02:00:00 0 6904 19.78 19.14 20.24 0 0 0
2019-06-16 03:00:00 0 6894 18.88 18.35 19.05 0 0 0
2019-06-16 04:00:00 0 6884 18.02 17.53 18.68 0 0 0
2019-06-16 05:00:00 0 6874 17.69 17.36 18.12 0 0 0
2019-06-16 06:00:00 0 6914 18.36 17.54 19.46 0 0 0
2019-06-16 07:00:00 0 6972 21.94 19.65 24.41 0 0 0
2019-06-16 08:00:00 0 7050 25.89 24.3 26.82 0 0 0
2019-06-16 09:00:00 0 7176 28.1 26.87 29.95 0 0 0
2019-06-16 10:00:00 0 7304 30.42 29.73 30.81 0 0 0
2019-06-16 11:00:00 0 7294 32.27 31.03 34.34 5.88 2.3 0
2019-06-16 12:00:00 0 7294 33.58 32.48 35.89 0 0 0
2019-06-16 13:00:00 0 7284 36.15 34.65 37.85 0 0 0
2019-06-16 14:00:00 0 7284 60 36.32 34.5 38.09 0 0 0
2019-06-16 15:00:00 0 7294 35.28 33.35 37.39 0 0 0
2019-06-16 16:00:00 0 7274 35.01 33.04 36.89 0 0 0
2019-06-16 17:00:00 0 7274 32.8 32.54 33.15 0 0 0
2019-06-16 18:00:00 0 7254 32.38 32.04 32.59 0 0 0
2019-06-16 19:00:00 0 7254 29.37 27.46 31.87 0 0 0
2019-06-16 20:00:00 0 6932 25.67 24.54 26.92 0 0 0
2019-06-16 21:00:00 0 6932 25.31 24.75 26.21 0 0 0
2019-06-16 22:00:00 6 6922 21.4 19.53 24.77 0 0 0
2019-06-16 23:00:00 17 6914 18.93 18.32 19.38 0 0 0
2019-06-17 00:00:00 0.6 6904 18.33 18.2 18.63 0 0 0
2019-06-17 01:00:00 0 6894 18.51 18.24 18.83 0 0 0
2019-06-17 02:00:00 0 6894 18.34 17.92 18.7 0 0 0
2019-06-17 03:00:00 0 6884 17.72 17.55 17.95 0 0 0
2019-06-17 04:00:00 0 6884 17.77 17.6 17.91 0 0 0
2019-06-17 05:00:00 0 6884 18.17 18 18.43 0 0 0
2019-06-17 06:00:00 0 6914 17.8 17.57 18.33 0 0 0
2019-06-17 07:00:00 0 7030 20.19 18.63 21.84 0 0 0
2019-06-17 08:00:00 0 7148 21.29 20.84 22.6 3.26 0
2019-06-17 09:00:00 0 7216 23.14 22.48 24.16 0 0 0
2019-06-17 10:00:00 0 7304 23.83 22.69 25.08 14.67 3.7 0
2019-06-17 11:00:00 0 7304 26.86 25.47 28.33 45.98 0
2019-06-17 12:00:00 0 7216 28.39 26.07 30.07 49.69 0
2019-06-17 13:00:00 0 7294 29.21 27.05 31.03 51 17.7 15.4
2019-06-17 14:00:00 0 7294 29.84 28.63 30.92 30.11 0
2019-06-17 15:00:00 0 7294 29.5 28.41 30.75 0 0 0
2019-06-17 16:00:00 0 7070 30.05 28 32.45 0 0 0